Porfirio, Texas
Current Conditions -  °F | °C
As of 9:35 PM on Friday 28 Nov 2014 (Local Time) from KEBG Reporting Station
Clear Clear  
Wind Chill: 61°   Ceiling: Unl
Heat Index: 61°   Visibility: 10mi
Dew Point: 55°   Wind: 3mph
Humidity: 81%   Direction: 150°SSE
Pressure: 30.16"   Gusts: NA
Location:  26.5112°N, 97.8502°W
Report Text: KEBG 290335Z AUTO 15003KT 10SM CLR 16/13 A3016 RMK AO2 T01630130
Loading
Personal Weather Stations






























Interactive Weather Map New forecast layout! Learn more

10-Day Weather Forecast

Advertisements
Track Severe Weather on mobile